sensor_id;sensor_type;location;lat;lon;timestamp;P1;durP1;ratioP1;P2;durP2;ratioP2
75012;SDS011;63567;49.956;20.130;2024-03-07T00:00:56;17.85;;;9.75;;
75012;SDS011;63567;49.956;20.130;2024-03-07T00:03:21;16.13;;;9.00;;
75012;SDS011;63567;49.956;20.130;2024-03-07T00:05:49;18.83;;;9.15;;
75012;SDS011;63567;49.956;20.130;2024-03-07T00:08:14;16.17;;;8.93;;
75012;SDS011;63567;49.956;20.130;2024-03-07T00:10:40;18.00;;;9.55;;
75012;SDS011;63567;49.956;20.130;2024-03-07T00:13:06;19.10;;;9.65;;
75012;SDS011;63567;49.956;20.130;2024-03-07T00:15:32;18.17;;;10.50;;
75012;SDS011;63567;49.956;20.130;2024-03-07T00:17:58;19.63;;;10.23;;
75012;SDS011;63567;49.956;20.130;2024-03-07T00:20:25;19.10;;;10.25;;
75012;SDS011;63567;49.956;20.130;2024-03-07T00:22:50;18.13;;;9.40;;
75012;SDS011;63567;49.956;20.130;2024-03-07T00:25:15;16.97;;;10.23;;
75012;SDS011;63567;49.956;20.130;2024-03-07T00:27:44;21.00;;;10.85;;
75012;SDS011;63567;49.956;20.130;2024-03-07T00:30:10;20.80;;;10.68;;
75012;SDS011;63567;49.956;20.130;2024-03-07T00:32:38;18.88;;;10.35;;
75012;SDS011;63567;49.956;20.130;2024-03-07T00:35:04;19.95;;;11.13;;
75012;SDS011;63567;49.956;20.130;2024-03-07T00:37:30;21.50;;;11.82;;
75012;SDS011;63567;49.956;20.130;2024-03-07T00:39:56;20.85;;;10.38;;
75012;SDS011;63567;49.956;20.130;2024-03-07T00:42:22;20.95;;;10.65;;
75012;SDS011;63567;49.956;20.130;2024-03-07T00:44:47;21.77;;;10.57;;
75012;SDS011;63567;49.956;20.130;2024-03-07T00:47:14;21.10;;;11.27;;
75012;SDS011;63567;49.956;20.130;2024-03-07T00:49:39;21.85;;;11.82;;
75012;SDS011;63567;49.956;20.130;2024-03-07T00:52:05;20.43;;;10.47;;
75012;SDS011;63567;49.956;20.130;2024-03-07T00:54:30;21.85;;;11.77;;
75012;SDS011;63567;49.956;20.130;2024-03-07T00:56:56;19.37;;;10.13;;
75012;SDS011;63567;49.956;20.130;2024-03-07T00:59:21;21.97;;;11.77;;
75012;SDS011;63567;49.956;20.130;2024-03-07T01:01:46;22.42;;;10.75;;
75012;SDS011;63567;49.956;20.130;2024-03-07T01:04:12;24.30;;;12.23;;
75012;SDS011;63567;49.956;20.130;2024-03-07T01:06:37;22.27;;;11.87;;
75012;SDS011;63567;49.956;20.130;2024-03-07T01:09:02;22.93;;;11.63;;
75012;SDS011;63567;49.956;20.130;2024-03-07T01:11:28;22.25;;;11.05;;
75012;SDS011;63567;49.956;20.130;2024-03-07T01:13:54;22.67;;;10.40;;
75012;SDS011;63567;49.956;20.130;2024-03-07T01:16:20;22.73;;;11.68;;
75012;SDS011;63567;49.956;20.130;2024-03-07T01:18:45;22.23;;;11.63;;
75012;SDS011;63567;49.956;20.130;2024-03-07T01:21:11;22.30;;;11.20;;
75012;SDS011;63567;49.956;20.130;2024-03-07T01:23:36;22.13;;;12.47;;
75012;SDS011;63567;49.956;20.130;2024-03-07T01:26:01;27.03;;;12.67;;
75012;SDS011;63567;49.956;20.130;2024-03-07T01:28:27;24.63;;;12.00;;
75012;SDS011;63567;49.956;20.130;2024-03-07T01:30:55;27.88;;;13.27;;
75012;SDS011;63567;49.956;20.130;2024-03-07T01:33:21;28.10;;;13.38;;
75012;SDS011;63567;49.956;20.130;2024-03-07T01:35:46;28.27;;;14.00;;
75012;SDS011;63567;49.956;20.130;2024-03-07T01:38:12;30.98;;;14.77;;
75012;SDS011;63567;49.956;20.130;2024-03-07T01:40:39;28.83;;;14.27;;
75012;SDS011;63567;49.956;20.130;2024-03-07T01:43:08;30.60;;;14.40;;
75012;SDS011;63567;49.956;20.130;2024-03-07T01:45:35;35.22;;;14.07;;
75012;SDS011;63567;49.956;20.130;2024-03-07T01:48:05;31.88;;;15.32;;
75012;SDS011;63567;49.956;20.130;2024-03-07T01:50:34;32.17;;;13.95;;
75012;SDS011;63567;49.956;20.130;2024-03-07T01:53:03;30.60;;;13.43;;
75012;SDS011;63567;49.956;20.130;2024-03-07T01:55:28;32.08;;;15.10;;
75012;SDS011;63567;49.956;20.130;2024-03-07T01:57:56;31.53;;;14.93;;
75012;SDS011;63567;49.956;20.130;2024-03-07T02:00:23;32.05;;;15.15;;
75012;SDS011;63567;49.956;20.130;2024-03-07T02:02:49;30.10;;;13.53;;
75012;SDS011;63567;49.956;20.130;2024-03-07T02:05:14;31.43;;;15.53;;
75012;SDS011;63567;49.956;20.130;2024-03-07T02:07:39;30.15;;;14.10;;
75012;SDS011;63567;49.956;20.130;2024-03-07T02:10:05;29.92;;;13.45;;
75012;SDS011;63567;49.956;20.130;2024-03-07T02:12:31;27.65;;;13.57;;
75012;SDS011;63567;49.956;20.130;2024-03-07T02:14:57;28.70;;;14.07;;
75012;SDS011;63567;49.956;20.130;2024-03-07T02:17:26;29.63;;;14.15;;
75012;SDS011;63567;49.956;20.130;2024-03-07T02:19:51;27.80;;;13.68;;
75012;SDS011;63567;49.956;20.130;2024-03-07T02:22:17;28.63;;;12.85;;
75012;SDS011;63567;49.956;20.130;2024-03-07T02:24:43;30.13;;;14.05;;
75012;SDS011;63567;49.956;20.130;2024-03-07T02:27:08;29.00;;;13.63;;
75012;SDS011;63567;49.956;20.130;2024-03-07T02:29:34;29.15;;;13.48;;
75012;SDS011;63567;49.956;20.130;2024-03-07T02:32:01;28.05;;;13.57;;
75012;SDS011;63567;49.956;20.130;2024-03-07T02:34:26;28.97;;;13.07;;
75012;SDS011;63567;49.956;20.130;2024-03-07T02:36:52;27.70;;;13.40;;
75012;SDS011;63567;49.956;20.130;2024-03-07T02:39:17;28.33;;;12.68;;
75012;SDS011;63567;49.956;20.130;2024-03-07T02:41:43;28.92;;;13.70;;
75012;SDS011;63567;49.956;20.130;2024-03-07T02:44:08;27.70;;;13.30;;
75012;SDS011;63567;49.956;20.130;2024-03-07T02:46:33;27.88;;;13.05;;
75012;SDS011;63567;49.956;20.130;2024-03-07T02:48:59;26.30;;;12.70;;
75012;SDS011;63567;49.956;20.130;2024-03-07T02:51:25;30.33;;;13.23;;
75012;SDS011;63567;49.956;20.130;2024-03-07T02:53:50;27.03;;;13.53;;
75012;SDS011;63567;49.956;20.130;2024-03-07T02:56:15;29.53;;;13.93;;
75012;SDS011;63567;49.956;20.130;2024-03-07T02:58:41;30.92;;;14.30;;
75012;SDS011;63567;49.956;20.130;2024-03-07T03:01:06;30.80;;;13.50;;
75012;SDS011;63567;49.956;20.130;2024-03-07T03:03:32;28.60;;;13.13;;
75012;SDS011;63567;49.956;20.130;2024-03-07T03:05:58;28.73;;;13.37;;
75012;SDS011;63567;49.956;20.130;2024-03-07T03:08:24;29.63;;;14.20;;
75012;SDS011;63567;49.956;20.130;2024-03-07T03:10:49;28.13;;;13.77;;
75012;SDS011;63567;49.956;20.130;2024-03-07T03:13:18;26.67;;;13.10;;
75012;SDS011;63567;49.956;20.130;2024-03-07T03:15:43;26.90;;;13.17;;
75012;SDS011;63567;49.956;20.130;2024-03-07T03:18:08;27.47;;;13.03;;
75012;SDS011;63567;49.956;20.130;2024-03-07T03:20:34;29.33;;;14.63;;
75012;SDS011;63567;49.956;20.130;2024-03-07T03:23:00;28.75;;;14.15;;
75012;SDS011;63567;49.956;20.130;2024-03-07T03:25:28;25.90;;;13.20;;
75012;SDS011;63567;49.956;20.130;2024-03-07T03:27:53;31.60;;;15.23;;
75012;SDS011;63567;49.956;20.130;2024-03-07T03:30:18;31.07;;;13.97;;
75012;SDS011;63567;49.956;20.130;2024-03-07T03:32:47;27.30;;;12.97;;
75012;SDS011;63567;49.956;20.130;2024-03-07T03:35:13;27.88;;;14.30;;
75012;SDS011;63567;49.956;20.130;2024-03-07T03:37:40;28.42;;;14.63;;
75012;SDS011;63567;49.956;20.130;2024-03-07T03:40:06;30.77;;;14.25;;
75012;SDS011;63567;49.956;20.130;2024-03-07T03:42:34;28.88;;;14.90;;
75012;SDS011;63567;49.956;20.130;2024-03-07T03:45:00;32.58;;;14.30;;
75012;SDS011;63567;49.956;20.130;2024-03-07T03:47:26;32.70;;;15.80;;
75012;SDS011;63567;49.956;20.130;2024-03-07T03:49:53;34.67;;;14.45;;
75012;SDS011;63567;49.956;20.130;2024-03-07T03:52:18;30.07;;;14.37;;
75012;SDS011;63567;49.956;20.130;2024-03-07T03:54:43;29.07;;;12.90;;
75012;SDS011;63567;49.956;20.130;2024-03-07T03:57:09;29.13;;;14.90;;
75012;SDS011;63567;49.956;20.130;2024-03-07T03:59:34;26.60;;;13.87;;
75012;SDS011;63567;49.956;20.130;2024-03-07T04:01:59;28.03;;;12.80;;
75012;SDS011;63567;49.956;20.130;2024-03-07T04:04:25;27.00;;;13.02;;
75012;SDS011;63567;49.956;20.130;2024-03-07T04:06:50;29.92;;;14.55;;
75012;SDS011;63567;49.956;20.130;2024-03-07T04:09:16;26.00;;;13.40;;
75012;SDS011;63567;49.956;20.130;2024-03-07T04:11:44;24.73;;;13.30;;
75012;SDS011;63567;49.956;20.130;2024-03-07T04:14:10;27.33;;;13.20;;
75012;SDS011;63567;49.956;20.130;2024-03-07T04:16:35;25.37;;;12.57;;
75012;SDS011;63567;49.956;20.130;2024-03-07T04:19:00;29.80;;;14.20;;
75012;SDS011;63567;49.956;20.130;2024-03-07T04:21:25;28.00;;;13.47;;
75012;SDS011;63567;49.956;20.130;2024-03-07T04:23:51;28.00;;;13.25;;
75012;SDS011;63567;49.956;20.130;2024-03-07T04:26:16;26.50;;;13.38;;
75012;SDS011;63567;49.956;20.130;2024-03-07T04:28:42;28.15;;;13.20;;
75012;SDS011;63567;49.956;20.130;2024-03-07T04:31:07;26.70;;;12.93;;
75012;SDS011;63567;49.956;20.130;2024-03-07T04:33:33;25.80;;;12.20;;
75012;SDS011;63567;49.956;20.130;2024-03-07T04:35:58;26.53;;;12.30;;
75012;SDS011;63567;49.956;20.130;2024-03-07T04:38:25;29.85;;;13.90;;
75012;SDS011;63567;49.956;20.130;2024-03-07T04:40:53;27.25;;;13.65;;
75012;SDS011;63567;49.956;20.130;2024-03-07T04:43:18;30.85;;;14.07;;
75012;SDS011;63567;49.956;20.130;2024-03-07T04:45:44;28.70;;;14.77;;
75012;SDS011;63567;49.956;20.130;2024-03-07T04:48:10;30.40;;;14.55;;
75012;SDS011;63567;49.956;20.130;2024-03-07T04:50:35;29.00;;;14.57;;
75012;SDS011;63567;49.956;20.130;2024-03-07T04:53:01;26.80;;;13.87;;
75012;SDS011;63567;49.956;20.130;2024-03-07T04:55:27;30.45;;;15.00;;
75012;SDS011;63567;49.956;20.130;2024-03-07T04:57:52;30.70;;;15.03;;
75012;SDS011;63567;49.956;20.130;2024-03-07T05:00:17;30.00;;;13.90;;
75012;SDS011;63567;49.956;20.130;2024-03-07T05:02:45;31.50;;;14.30;;
75012;SDS011;63567;49.956;20.130;2024-03-07T05:05:12;30.08;;;14.25;;
75012;SDS011;63567;49.956;20.130;2024-03-07T05:07:38;31.65;;;15.00;;
75012;SDS011;63567;49.956;20.130;2024-03-07T05:10:04;33.05;;;15.27;;
75012;SDS011;63567;49.956;20.130;2024-03-07T05:12:30;31.35;;;13.57;;
75012;SDS011;63567;49.956;20.130;2024-03-07T05:14:56;29.98;;;14.63;;
75012;SDS011;63567;49.956;20.130;2024-03-07T05:17:21;30.67;;;14.93;;
75012;SDS011;63567;49.956;20.130;2024-03-07T05:19:47;28.08;;;14.70;;
75012;SDS011;63567;49.956;20.130;2024-03-07T05:22:14;32.25;;;15.23;;
75012;SDS011;63567;49.956;20.130;2024-03-07T05:24:41;32.95;;;14.77;;
75012;SDS011;63567;49.956;20.130;2024-03-07T05:27:07;32.47;;;15.23;;
75012;SDS011;63567;49.956;20.130;2024-03-07T05:29:33;32.30;;;15.02;;
75012;SDS011;63567;49.956;20.130;2024-03-07T05:32:18;34.13;;;15.43;;
75012;SDS011;63567;49.956;20.130;2024-03-07T05:34:50;33.45;;;15.68;;
75012;SDS011;63567;49.956;20.130;2024-03-07T05:37:18;36.42;;;16.40;;
75012;SDS011;63567;49.956;20.130;2024-03-07T05:39:45;40.40;;;17.15;;
75012;SDS011;63567;49.956;20.130;2024-03-07T05:42:10;31.63;;;14.97;;
75012;SDS011;63567;49.956;20.130;2024-03-07T05:44:38;35.92;;;16.88;;
75012;SDS011;63567;49.956;20.130;2024-03-07T05:47:04;38.35;;;16.98;;
75012;SDS011;63567;49.956;20.130;2024-03-07T05:49:30;34.33;;;16.13;;
75012;SDS011;63567;49.956;20.130;2024-03-07T05:51:56;38.28;;;17.38;;
75012;SDS011;63567;49.956;20.130;2024-03-07T05:54:22;37.33;;;16.88;;
75012;SDS011;63567;49.956;20.130;2024-03-07T05:56:48;33.80;;;15.40;;
75012;SDS011;63567;49.956;20.130;2024-03-07T05:59:13;33.05;;;15.55;;
75012;SDS011;63567;49.956;20.130;2024-03-07T06:01:39;38.97;;;15.97;;
75012;SDS011;63567;49.956;20.130;2024-03-07T06:04:05;38.97;;;17.25;;
75012;SDS011;63567;49.956;20.130;2024-03-07T06:06:31;34.45;;;15.35;;
75012;SDS011;63567;49.956;20.130;2024-03-07T06:09:01;36.28;;;16.02;;
75012;SDS011;63567;49.956;20.130;2024-03-07T06:11:33;34.60;;;15.43;;
75012;SDS011;63567;49.956;20.130;2024-03-07T06:14:05;33.47;;;15.10;;
75012;SDS011;63567;49.956;20.130;2024-03-07T06:18:59;33.15;;;14.85;;
75012;SDS011;63567;49.956;20.130;2024-03-07T06:21:26;37.50;;;15.82;;
75012;SDS011;63567;49.956;20.130;2024-03-07T06:23:51;37.47;;;16.75;;
75012;SDS011;63567;49.956;20.130;2024-03-07T06:26:24;36.25;;;16.65;;
75012;SDS011;63567;49.956;20.130;2024-03-07T06:29:02;38.85;;;16.83;;
75012;SDS011;63567;49.956;20.130;2024-03-07T06:31:30;39.30;;;16.80;;
75012;SDS011;63567;49.956;20.130;2024-03-07T06:33:55;37.65;;;17.30;;
75012;SDS011;63567;49.956;20.130;2024-03-07T06:36:20;39.43;;;16.33;;
75012;SDS011;63567;49.956;20.130;2024-03-07T06:38:45;35.90;;;16.40;;
75012;SDS011;63567;49.956;20.130;2024-03-07T06:41:11;38.93;;;16.73;;
75012;SDS011;63567;49.956;20.130;2024-03-07T06:43:36;38.53;;;16.33;;
75012;SDS011;63567;49.956;20.130;2024-03-07T06:46:01;39.20;;;17.57;;
75012;SDS011;63567;49.956;20.130;2024-03-07T06:48:27;35.85;;;16.75;;
75012;SDS011;63567;49.956;20.130;2024-03-07T06:50:53;39.40;;;17.45;;
75012;SDS011;63567;49.956;20.130;2024-03-07T06:53:18;39.23;;;16.40;;
75012;SDS011;63567;49.956;20.130;2024-03-07T06:55:45;37.75;;;17.20;;
75012;SDS011;63567;49.956;20.130;2024-03-07T06:58:10;34.50;;;16.60;;
75012;SDS011;63567;49.956;20.130;2024-03-07T07:00:35;34.43;;;15.20;;
75012;SDS011;63567;49.956;20.130;2024-03-07T07:03:01;39.50;;;17.33;;
75012;SDS011;63567;49.956;20.130;2024-03-07T07:05:29;36.05;;;16.33;;
75012;SDS011;63567;49.956;20.130;2024-03-07T07:07:55;33.83;;;16.38;;
75012;SDS011;63567;49.956;20.130;2024-03-07T07:10:20;37.27;;;16.27;;
75012;SDS011;63567;49.956;20.130;2024-03-07T07:12:48;36.95;;;15.68;;
75012;SDS011;63567;49.956;20.130;2024-03-07T07:15:15;41.35;;;17.55;;
75012;SDS011;63567;49.956;20.130;2024-03-07T07:17:43;37.05;;;16.55;;
75012;SDS011;63567;49.956;20.130;2024-03-07T07:22:40;36.10;;;14.73;;
75012;SDS011;63567;49.956;20.130;2024-03-07T07:25:06;33.53;;;14.32;;
75012;SDS011;63567;49.956;20.130;2024-03-07T07:27:39;33.75;;;15.85;;
75012;SDS011;63567;49.956;20.130;2024-03-07T07:30:06;30.73;;;15.55;;
75012;SDS011;63567;49.956;20.130;2024-03-07T07:32:31;33.38;;;15.48;;
75012;SDS011;63567;49.956;20.130;2024-03-07T07:34:57;33.35;;;14.88;;
75012;SDS011;63567;49.956;20.130;2024-03-07T07:37:22;37.23;;;15.67;;
75012;SDS011;63567;49.956;20.130;2024-03-07T07:39:48;36.50;;;14.83;;
75012;SDS011;63567;49.956;20.130;2024-03-07T07:42:13;34.97;;;15.57;;
75012;SDS011;63567;49.956;20.130;2024-03-07T07:44:39;33.92;;;15.90;;
75012;SDS011;63567;49.956;20.130;2024-03-07T07:47:05;34.28;;;15.88;;
75012;SDS011;63567;49.956;20.130;2024-03-07T07:49:30;34.58;;;16.00;;
75012;SDS011;63567;49.956;20.130;2024-03-07T07:51:56;33.50;;;15.50;;
75012;SDS011;63567;49.956;20.130;2024-03-07T07:54:21;38.80;;;16.97;;
75012;SDS011;63567;49.956;20.130;2024-03-07T07:56:46;31.80;;;15.20;;
75012;SDS011;63567;49.956;20.130;2024-03-07T07:59:12;32.38;;;15.35;;
75012;SDS011;63567;49.956;20.130;2024-03-07T08:01:38;37.08;;;15.52;;
75012;SDS011;63567;49.956;20.130;2024-03-07T08:04:03;34.53;;;15.00;;
75012;SDS011;63567;49.956;20.130;2024-03-07T08:06:29;37.25;;;16.88;;
75012;SDS011;63567;49.956;20.130;2024-03-07T08:08:55;33.53;;;15.23;;
75012;SDS011;63567;49.956;20.130;2024-03-07T08:11:20;32.80;;;15.53;;
75012;SDS011;63567;49.956;20.130;2024-03-07T08:13:45;32.97;;;15.63;;
75012;SDS011;63567;49.956;20.130;2024-03-07T08:16:14;31.58;;;14.88;;
75012;SDS011;63567;49.956;20.130;2024-03-07T08:18:40;35.72;;;16.25;;
75012;SDS011;63567;49.956;20.130;2024-03-07T08:21:05;32.93;;;15.17;;
75012;SDS011;63567;49.956;20.130;2024-03-07T08:23:31;32.13;;;14.75;;
75012;SDS011;63567;49.956;20.130;2024-03-07T08:25:56;36.63;;;16.27;;
75012;SDS011;63567;49.956;20.130;2024-03-07T08:28:22;33.97;;;15.10;;
75012;SDS011;63567;49.956;20.130;2024-03-07T08:30:47;30.90;;;14.87;;
75012;SDS011;63567;49.956;20.130;2024-03-07T08:33:12;34.30;;;15.20;;
75012;SDS011;63567;49.956;20.130;2024-03-07T08:35:38;33.75;;;15.15;;
75012;SDS011;63567;49.956;20.130;2024-03-07T08:38:04;33.67;;;16.15;;
75012;SDS011;63567;49.956;20.130;2024-03-07T08:40:30;32.58;;;14.15;;
75012;SDS011;63567;49.956;20.130;2024-03-07T08:42:57;33.38;;;15.23;;
75012;SDS011;63567;49.956;20.130;2024-03-07T08:45:22;34.05;;;15.65;;
75012;SDS011;63567;49.956;20.130;2024-03-07T08:47:49;28.88;;;13.30;;
75012;SDS011;63567;49.956;20.130;2024-03-07T08:50:15;30.00;;;14.52;;
75012;SDS011;63567;49.956;20.130;2024-03-07T08:52:43;31.60;;;13.88;;
75012;SDS011;63567;49.956;20.130;2024-03-07T08:55:09;32.22;;;15.23;;
75012;SDS011;63567;49.956;20.130;2024-03-07T08:57:37;30.05;;;14.73;;
75012;SDS011;63567;49.956;20.130;2024-03-07T09:00:04;30.83;;;14.65;;
75012;SDS011;63567;49.956;20.130;2024-03-07T09:02:37;29.90;;;13.65;;
75012;SDS011;63567;49.956;20.130;2024-03-07T09:05:04;31.38;;;14.45;;
75012;SDS011;63567;49.956;20.130;2024-03-07T09:07:30;32.80;;;14.55;;
75012;SDS011;63567;49.956;20.130;2024-03-07T09:09:56;27.35;;;13.50;;
75012;SDS011;63567;49.956;20.130;2024-03-07T09:12:21;32.45;;;14.77;;
75012;SDS011;63567;49.956;20.130;2024-03-07T09:14:47;32.75;;;14.52;;
75012;SDS011;63567;49.956;20.130;2024-03-07T09:17:12;29.15;;;14.93;;
75012;SDS011;63567;49.956;20.130;2024-03-07T09:19:37;30.73;;;13.63;;
75012;SDS011;63567;49.956;20.130;2024-03-07T09:22:03;30.00;;;14.88;;
75012;SDS011;63567;49.956;20.130;2024-03-07T09:24:29;31.23;;;14.82;;
75012;SDS011;63567;49.956;20.130;2024-03-07T09:26:56;30.10;;;14.88;;
75012;SDS011;63567;49.956;20.130;2024-03-07T09:29:21;29.98;;;13.13;;
75012;SDS011;63567;49.956;20.130;2024-03-07T09:31:50;29.52;;;13.75;;
75012;SDS011;63567;49.956;20.130;2024-03-07T09:34:19;30.75;;;14.57;;
75012;SDS011;63567;49.956;20.130;2024-03-07T09:36:46;30.38;;;14.40;;
75012;SDS011;63567;49.956;20.130;2024-03-07T09:39:12;29.77;;;14.15;;
75012;SDS011;63567;49.956;20.130;2024-03-07T09:41:37;32.60;;;13.97;;
75012;SDS011;63567;49.956;20.130;2024-03-07T09:44:04;27.65;;;14.60;;
75012;SDS011;63567;49.956;20.130;2024-03-07T09:46:30;30.15;;;15.15;;
75012;SDS011;63567;49.956;20.130;2024-03-07T09:48:56;29.73;;;13.77;;
75012;SDS011;63567;49.956;20.130;2024-03-07T09:51:23;29.45;;;13.07;;
75012;SDS011;63567;49.956;20.130;2024-03-07T09:53:49;28.30;;;13.75;;
75012;SDS011;63567;49.956;20.130;2024-03-07T09:56:20;31.73;;;14.13;;
75012;SDS011;63567;49.956;20.130;2024-03-07T09:58:47;27.20;;;12.98;;
75012;SDS011;63567;49.956;20.130;2024-03-07T10:01:14;28.33;;;13.02;;
75012;SDS011;63567;49.956;20.130;2024-03-07T10:03:41;27.30;;;13.30;;
75012;SDS011;63567;49.956;20.130;2024-03-07T10:06:09;30.83;;;14.35;;
75012;SDS011;63567;49.956;20.130;2024-03-07T10:08:35;27.23;;;13.85;;
75012;SDS011;63567;49.956;20.130;2024-03-07T10:11:01;27.60;;;13.40;;
75012;SDS011;63567;49.956;20.130;2024-03-07T10:13:27;26.23;;;13.48;;
75012;SDS011;63567;49.956;20.130;2024-03-07T10:15:53;27.65;;;13.25;;
75012;SDS011;63567;49.956;20.130;2024-03-07T10:18:24;28.30;;;13.70;;
75012;SDS011;63567;49.956;20.130;2024-03-07T10:20:53;29.00;;;14.20;;
75012;SDS011;63567;49.956;20.130;2024-03-07T10:23:19;29.88;;;15.05;;
75012;SDS011;63567;49.956;20.130;2024-03-07T10:25:46;32.97;;;14.27;;
75012;SDS011;63567;49.956;20.130;2024-03-07T10:28:12;29.80;;;14.30;;
75012;SDS011;63567;49.956;20.130;2024-03-07T10:30:40;30.33;;;13.27;;
75012;SDS011;63567;49.956;20.130;2024-03-07T10:33:06;26.35;;;13.10;;
75012;SDS011;63567;49.956;20.130;2024-03-07T10:35:32;29.60;;;14.30;;
75012;SDS011;63567;49.956;20.130;2024-03-07T10:37:57;30.00;;;12.82;;
75012;SDS011;63567;49.956;20.130;2024-03-07T10:40:31;28.25;;;13.15;;
75012;SDS011;63567;49.956;20.130;2024-03-07T10:42:56;27.83;;;13.43;;
75012;SDS011;63567;49.956;20.130;2024-03-07T10:45:23;27.20;;;13.65;;
75012;SDS011;63567;49.956;20.130;2024-03-07T10:47:55;29.70;;;14.32;;
75012;SDS011;63567;49.956;20.130;2024-03-07T11:02:15;28.90;;;13.90;;
75012;SDS011;63567;49.956;20.130;2024-03-07T11:04:49;34.30;;;14.85;;
75012;SDS011;63567;49.956;20.130;2024-03-07T11:07:16;28.60;;;13.63;;
75012;SDS011;63567;49.956;20.130;2024-03-07T11:09:43;28.65;;;13.95;;
75012;SDS011;63567;49.956;20.130;2024-03-07T11:12:10;29.70;;;13.50;;
75012;SDS011;63567;49.956;20.130;2024-03-07T11:14:36;28.65;;;14.02;;
75012;SDS011;63567;49.956;20.130;2024-03-07T11:17:03;30.52;;;13.68;;
75012;SDS011;63567;49.956;20.130;2024-03-07T11:19:33;27.75;;;14.20;;
75012;SDS011;63567;49.956;20.130;2024-03-07T11:22:01;29.20;;;14.10;;
75012;SDS011;63567;49.956;20.130;2024-03-07T11:24:38;30.40;;;14.13;;
75012;SDS011;63567;49.956;20.130;2024-03-07T11:27:04;27.60;;;15.50;;
75012;SDS011;63567;49.956;20.130;2024-03-07T11:32:21;30.13;;;14.75;;
75012;SDS011;63567;49.956;20.130;2024-03-07T11:34:47;27.35;;;13.48;;
75012;SDS011;63567;49.956;20.130;2024-03-07T11:37:20;30.98;;;14.95;;
75012;SDS011;63567;49.956;20.130;2024-03-07T11:40:06;26.90;;;13.57;;
75012;SDS011;63567;49.956;20.130;2024-03-07T11:42:33;28.42;;;13.95;;
75012;SDS011;63567;49.956;20.130;2024-03-07T11:45:00;30.15;;;14.65;;
75012;SDS011;63567;49.956;20.130;2024-03-07T11:47:34;29.13;;;13.30;;
75012;SDS011;63567;49.956;20.130;2024-03-07T11:50:03;29.70;;;14.73;;
75012;SDS011;63567;49.956;20.130;2024-03-07T11:52:33;30.35;;;14.73;;
75012;SDS011;63567;49.956;20.130;2024-03-07T11:54:58;29.60;;;15.73;;
75012;SDS011;63567;49.956;20.130;2024-03-07T11:57:28;31.88;;;14.70;;
75012;SDS011;63567;49.956;20.130;2024-03-07T11:59:57;28.33;;;15.73;;
75012;SDS011;63567;49.956;20.130;2024-03-07T12:02:25;29.10;;;13.95;;
75012;SDS011;63567;49.956;20.130;2024-03-07T12:04:51;31.85;;;14.65;;
75012;SDS011;63567;49.956;20.130;2024-03-07T12:07:16;30.63;;;14.67;;
75012;SDS011;63567;49.956;20.130;2024-03-07T12:09:42;29.85;;;14.60;;
75012;SDS011;63567;49.956;20.130;2024-03-07T12:12:13;30.02;;;13.95;;
75012;SDS011;63567;49.956;20.130;2024-03-07T12:14:38;29.58;;;15.50;;
75012;SDS011;63567;49.956;20.130;2024-03-07T12:17:04;30.47;;;13.73;;
75012;SDS011;63567;49.956;20.130;2024-03-07T12:19:34;30.48;;;14.25;;
75012;SDS011;63567;49.956;20.130;2024-03-07T12:22:00;32.38;;;15.27;;
75012;SDS011;63567;49.956;20.130;2024-03-07T12:24:34;27.10;;;13.23;;
75012;SDS011;63567;49.956;20.130;2024-03-07T12:27:06;30.02;;;14.63;;
75012;SDS011;63567;49.956;20.130;2024-03-07T12:29:36;30.75;;;15.25;;
75012;SDS011;63567;49.956;20.130;2024-03-07T12:32:07;28.63;;;15.23;;
75012;SDS011;63567;49.956;20.130;2024-03-07T12:34:35;30.42;;;14.65;;
75012;SDS011;63567;49.956;20.130;2024-03-07T12:37:04;32.78;;;14.07;;
75012;SDS011;63567;49.956;20.130;2024-03-07T12:39:31;28.75;;;14.32;;
75012;SDS011;63567;49.956;20.130;2024-03-07T12:42:03;29.35;;;14.32;;
75012;SDS011;63567;49.956;20.130;2024-03-07T12:44:41;30.08;;;15.57;;
75012;SDS011;63567;49.956;20.130;2024-03-07T12:47:11;32.08;;;15.05;;
75012;SDS011;63567;49.956;20.130;2024-03-07T12:49:38;32.95;;;16.05;;
75012;SDS011;63567;49.956;20.130;2024-03-07T12:52:04;31.30;;;16.23;;
75012;SDS011;63567;49.956;20.130;2024-03-07T12:54:30;30.88;;;15.15;;
75012;SDS011;63567;49.956;20.130;2024-03-07T12:56:56;28.80;;;14.87;;
75012;SDS011;63567;49.956;20.130;2024-03-07T12:59:21;29.20;;;14.93;;
75012;SDS011;63567;49.956;20.130;2024-03-07T13:01:48;29.13;;;13.68;;
75012;SDS011;63567;49.956;20.130;2024-03-07T13:04:14;27.95;;;14.65;;
75012;SDS011;63567;49.956;20.130;2024-03-07T13:06:40;27.98;;;14.57;;
75012;SDS011;63567;49.956;20.130;2024-03-07T13:09:11;29.00;;;14.82;;
75012;SDS011;63567;49.956;20.130;2024-03-07T13:11:39;26.42;;;13.75;;
75012;SDS011;63567;49.956;20.130;2024-03-07T13:14:12;28.20;;;14.65;;
75012;SDS011;63567;49.956;20.130;2024-03-07T13:16:40;25.85;;;14.00;;
75012;SDS011;63567;49.956;20.130;2024-03-07T13:19:08;24.73;;;12.38;;
75012;SDS011;63567;49.956;20.130;2024-03-07T13:21:33;26.60;;;13.73;;
75012;SDS011;63567;49.956;20.130;2024-03-07T13:24:00;27.92;;;14.15;;
75012;SDS011;63567;49.956;20.130;2024-03-07T13:26:26;26.23;;;13.40;;
75012;SDS011;63567;49.956;20.130;2024-03-07T13:28:55;28.00;;;14.18;;
75012;SDS011;63567;49.956;20.130;2024-03-07T13:31:20;26.15;;;14.23;;
75012;SDS011;63567;49.956;20.130;2024-03-07T13:33:46;26.90;;;13.53;;
75012;SDS011;63567;49.956;20.130;2024-03-07T13:36:11;28.98;;;15.20;;
75012;SDS011;63567;49.956;20.130;2024-03-07T13:38:39;27.85;;;15.27;;
75012;SDS011;63567;49.956;20.130;2024-03-07T13:41:05;26.50;;;13.35;;
75012;SDS011;63567;49.956;20.130;2024-03-07T13:43:31;25.73;;;14.55;;
75012;SDS011;63567;49.956;20.130;2024-03-07T13:45:58;26.30;;;14.27;;
75012;SDS011;63567;49.956;20.130;2024-03-07T13:48:25;26.90;;;14.30;;
75012;SDS011;63567;49.956;20.130;2024-03-07T13:50:50;25.48;;;13.90;;
75012;SDS011;63567;49.956;20.130;2024-03-07T13:53:19;27.05;;;13.48;;
75012;SDS011;63567;49.956;20.130;2024-03-07T13:55:53;25.20;;;13.93;;
75012;SDS011;63567;49.956;20.130;2024-03-07T14:09:30;25.00;;;13.35;;
75012;SDS011;63567;49.956;20.130;2024-03-07T14:12:40;25.42;;;13.50;;
75012;SDS011;63567;49.956;20.130;2024-03-07T14:27:09;23.15;;;12.57;;
75012;SDS011;63567;49.956;20.130;2024-03-07T14:32:37;25.30;;;14.25;;
75012;SDS011;63567;49.956;20.130;2024-03-07T14:38:00;24.77;;;12.13;;
75012;SDS011;63567;49.956;20.130;2024-03-07T14:40:41;24.80;;;12.13;;
75012;SDS011;63567;49.956;20.130;2024-03-07T14:43:09;22.90;;;13.10;;
75012;SDS011;63567;49.956;20.130;2024-03-07T14:45:38;24.87;;;12.73;;
75012;SDS011;63567;49.956;20.130;2024-03-07T14:48:05;25.67;;;14.73;;
75012;SDS011;63567;49.956;20.130;2024-03-07T14:50:35;23.73;;;13.65;;
75012;SDS011;63567;49.956;20.130;2024-03-07T14:53:01;24.55;;;13.95;;
75012;SDS011;63567;49.956;20.130;2024-03-07T14:55:26;23.67;;;13.20;;